createdAt,value
2018-09-18T00:01:19.998Z,17.10
2018-09-18T00:03:49.466Z,17.00
2018-09-18T00:06:18.157Z,17.00
2018-09-18T00:08:48.291Z,16.90
2018-09-18T00:11:16.891Z,16.90
2018-09-18T00:13:45.398Z,16.90
2018-09-18T00:16:13.989Z,16.90
2018-09-18T00:18:42.526Z,16.90
2018-09-18T00:21:10.999Z,16.90
2018-09-18T00:23:39.499Z,16.80
2018-09-18T00:26:08.087Z,16.80
2018-09-18T00:28:36.626Z,16.80
2018-09-18T00:31:05.161Z,16.80
2018-09-18T00:33:33.668Z,16.80
2018-09-18T00:36:02.372Z,16.80
2018-09-18T00:38:30.941Z,16.80
2018-09-18T00:40:59.789Z,16.80
2018-09-18T00:43:28.286Z,16.80
2018-09-18T00:45:57.122Z,16.70
2018-09-18T00:48:25.646Z,16.80
2018-09-18T00:50:54.190Z,16.70
2018-09-18T00:53:22.683Z,16.80
2018-09-18T00:55:51.245Z,16.70
2018-09-18T00:58:19.750Z,16.70
2018-09-18T01:00:48.350Z,16.70
2018-09-18T01:03:16.958Z,16.70
2018-09-18T01:05:45.570Z,16.70
2018-09-18T01:08:14.118Z,16.60
2018-09-18T01:10:42.912Z,16.60
2018-09-18T01:13:11.621Z,16.60
2018-09-18T01:15:40.225Z,16.50
2018-09-18T01:18:09.359Z,16.50
2018-09-18T01:20:38.167Z,16.60
2018-09-18T01:23:06.970Z,16.50
2018-09-18T01:25:35.767Z,16.60
2018-09-18T01:28:04.294Z,16.50
2018-09-18T01:30:33.318Z,16.60
2018-09-18T01:33:01.913Z,16.50
2018-09-18T01:35:30.434Z,16.60
2018-09-18T01:37:58.938Z,16.50
2018-09-18T01:40:27.783Z,16.50
2018-09-18T01:42:56.291Z,16.50
2018-09-18T01:45:24.811Z,16.50
2018-09-18T01:47:53.261Z,16.50
2018-09-18T01:50:21.815Z,16.50
2018-09-18T01:52:50.267Z,16.50
2018-09-18T01:55:18.793Z,16.50
2018-09-18T01:57:47.377Z,16.50
2018-09-18T02:00:15.885Z,16.50
2018-09-18T02:02:44.382Z,16.50
2018-09-18T02:05:12.895Z,16.40
2018-09-18T02:07:41.718Z,16.40
2018-09-18T02:10:10.185Z,16.40
2018-09-18T02:12:38.847Z,16.30
2018-09-18T02:15:07.366Z,16.30
2018-09-18T02:17:35.869Z,16.30
2018-09-18T02:20:04.701Z,16.20
2018-09-18T02:22:33.223Z,16.30
2018-09-18T02:25:01.743Z,16.30
2018-09-18T02:27:30.237Z,16.20
2018-09-18T02:29:58.755Z,16.20
2018-09-18T02:32:27.594Z,16.30
2018-09-18T02:34:56.138Z,16.30
2018-09-18T02:37:24.589Z,16.30
2018-09-18T02:39:53.150Z,16.20
2018-09-18T02:42:22.397Z,16.20
2018-09-18T02:44:51.490Z,16.20
2018-09-18T02:47:19.982Z,16.20
2018-09-18T02:49:50.047Z,16.20
2018-09-18T02:52:18.947Z,16.30
2018-09-18T02:54:47.478Z,16.30
2018-09-18T02:57:16.023Z,16.30
2018-09-18T02:59:44.486Z,16.30
2018-09-18T03:02:13.032Z,16.20
2018-09-18T03:04:41.537Z,16.20
2018-09-18T03:07:10.414Z,16.20
2018-09-18T03:09:38.919Z,16.20
2018-09-18T03:12:07.578Z,16.10
2018-09-18T03:14:36.079Z,16.10
2018-09-18T03:17:04.799Z,16.10
2018-09-18T03:19:33.349Z,16.10
2018-09-18T03:22:01.808Z,16.00
2018-09-18T03:24:30.363Z,16.00
2018-09-18T03:26:59.515Z,16.00
2018-09-18T03:29:28.873Z,16.00
2018-09-18T03:31:57.385Z,15.90
2018-09-18T03:34:27.119Z,15.90
2018-09-18T03:36:58.656Z,15.90
2018-09-18T03:39:27.139Z,15.90
2018-09-18T03:41:55.649Z,15.90
2018-09-18T03:44:24.131Z,15.90
2018-09-18T03:46:52.658Z,15.80
2018-09-18T03:49:21.110Z,15.80
2018-09-18T03:51:49.905Z,15.80
2018-09-18T03:54:18.383Z,15.80
2018-09-18T03:56:46.914Z,15.80
2018-09-18T03:59:15.381Z,15.70
2018-09-18T04:01:43.925Z,15.70
2018-09-18T04:04:12.406Z,15.70
2018-09-18T04:06:40.976Z,15.60
2018-09-18T04:09:11.166Z,15.60
2018-09-18T04:11:39.992Z,15.50
2018-09-18T04:14:08.560Z,15.50
2018-09-18T04:16:37.099Z,15.50
2018-09-18T04:19:05.803Z,15.50
2018-09-18T04:21:41.504Z,15.50
2018-09-18T04:24:10.185Z,15.50
2018-09-18T04:26:40.059Z,15.50
2018-09-18T04:29:09.395Z,15.50
2018-09-18T04:31:39.295Z,15.50
2018-09-18T04:34:07.845Z,15.50
2018-09-18T04:36:36.619Z,15.50
2018-09-18T04:39:08.258Z,15.40
2018-09-18T04:41:36.758Z,15.40
2018-09-18T04:44:05.288Z,15.40
2018-09-18T04:46:33.746Z,15.40
2018-09-18T04:49:02.274Z,15.40
2018-09-18T04:51:30.747Z,15.40
2018-09-18T04:53:59.380Z,15.40
2018-09-18T04:56:28.387Z,15.30
2018-09-18T04:58:56.991Z,15.40
2018-09-18T05:01:25.510Z,15.30
2018-09-18T05:03:53.985Z,15.40
2018-09-18T05:06:22.762Z,15.40
2018-09-18T05:08:52.843Z,15.40
2018-09-18T05:11:21.366Z,15.40
2018-09-18T05:13:49.949Z,15.40
2018-09-18T05:16:18.454Z,15.50
2018-09-18T05:18:47.115Z,15.50
2018-09-18T05:21:16.218Z,15.60
2018-09-18T05:23:45.980Z,15.60
2018-09-18T05:26:14.919Z,15.60
2018-09-18T05:28:43.422Z,15.70
2018-09-18T05:31:11.937Z,15.70
2018-09-18T05:33:40.459Z,15.70
2018-09-18T05:36:09.150Z,15.70
2018-09-18T05:38:37.790Z,15.80
2018-09-18T05:41:06.323Z,15.80
2018-09-18T05:43:34.843Z,15.80
2018-09-18T05:46:03.366Z,15.90
2018-09-18T05:48:34.694Z,15.90
2018-09-18T05:51:03.612Z,15.90
2018-09-18T05:53:32.097Z,15.90
2018-09-18T05:56:00.662Z,16.00
2018-09-18T05:58:29.714Z,16.00
2018-09-18T06:00:58.270Z,16.10
2018-09-18T06:03:27.749Z,16.10
2018-09-18T06:05:56.309Z,16.10
2018-09-18T06:08:24.934Z,16.20
2018-09-18T06:10:53.434Z,16.20
2018-09-18T06:13:21.958Z,16.30
2018-09-18T06:15:51.407Z,16.30
2018-09-18T06:18:20.027Z,16.30
2018-09-18T06:20:48.574Z,16.40
2018-09-18T06:23:17.122Z,16.50
2018-09-18T06:25:45.710Z,16.60
2018-09-18T06:28:14.318Z,16.70
2018-09-18T06:30:44.515Z,16.70
2018-09-18T06:33:13.143Z,16.80
2018-09-18T06:35:41.632Z,16.90
2018-09-18T06:38:10.170Z,17.10
2018-09-18T06:40:38.703Z,17.20
2018-09-18T06:43:07.290Z,17.30
2018-09-18T06:45:35.784Z,17.50
2018-09-18T06:48:05.061Z,17.60
2018-09-18T06:50:33.428Z,17.70
2018-09-18T06:53:01.931Z,17.80
2018-09-18T06:55:30.523Z,17.90
2018-09-18T06:57:59.119Z,18.00
2018-09-18T07:00:27.622Z,18.10
2018-09-18T07:02:56.237Z,18.30
2018-09-18T07:05:24.758Z,18.40
2018-09-18T07:07:53.302Z,18.40
2018-09-18T07:10:22.530Z,18.60
2018-09-18T07:12:51.277Z,18.70
2018-09-18T07:15:19.871Z,18.80
2018-09-18T07:17:48.406Z,18.80
2018-09-18T07:20:17.416Z,18.90
2018-09-18T07:22:46.113Z,18.90
2018-09-18T07:25:14.617Z,19.00
2018-09-18T07:27:43.131Z,19.10
2018-09-18T07:30:11.692Z,19.20
2018-09-18T07:32:40.239Z,19.20
2018-09-18T07:35:08.768Z,19.30
2018-09-18T07:37:38.202Z,19.40
2018-09-18T07:40:06.900Z,19.50
2018-09-18T07:42:35.455Z,19.50
2018-09-18T07:45:04.005Z,19.60
2018-09-18T07:47:32.549Z,19.70
2018-09-18T07:50:01.030Z,19.80
2018-09-18T07:52:29.628Z,19.90
2018-09-18T07:54:58.225Z,20.00
2018-09-18T07:57:26.766Z,20.20
2018-09-18T07:59:55.259Z,20.30
2018-09-18T08:02:23.845Z,20.50
2018-09-18T08:04:52.431Z,20.60
2018-09-18T08:07:21.178Z,20.70
2018-09-18T08:09:49.736Z,20.80
2018-09-18T08:12:18.316Z,21.00
2018-09-18T08:14:47.455Z,21.10
2018-09-18T08:17:16.020Z,21.20
2018-09-18T08:19:44.666Z,21.40
2018-09-18T08:22:13.247Z,21.50
2018-09-18T08:24:41.741Z,21.60
2018-09-18T08:27:10.992Z,21.80
2018-09-18T08:29:39.905Z,21.90
2018-09-18T08:32:08.533Z,22.00
2018-09-18T08:34:37.020Z,22.10
2018-09-18T08:37:06.291Z,22.20
2018-09-18T08:39:34.800Z,22.30
2018-09-18T08:42:04.306Z,22.40
2018-09-18T08:44:32.804Z,22.50
2018-09-18T08:47:01.412Z,22.70
2018-09-18T08:49:29.912Z,22.80
2018-09-18T08:51:58.564Z,22.90
2018-09-18T08:54:29.120Z,23.00
2018-09-18T08:56:58.545Z,23.10
2018-09-18T08:59:27.309Z,23.20
2018-09-18T09:01:56.396Z,23.30
2018-09-18T09:04:24.954Z,23.40
2018-09-18T09:06:53.635Z,23.50
2018-09-18T09:09:22.247Z,23.60
2018-09-18T09:11:50.790Z,23.70
2018-09-18T09:14:19.328Z,23.80
2018-09-18T09:16:47.875Z,23.90
2018-09-18T09:19:17.615Z,24.00
2018-09-18T09:21:46.331Z,24.10
2018-09-18T09:24:14.839Z,24.20
2018-09-18T09:26:43.379Z,24.30
2018-09-18T09:29:11.932Z,24.40
2018-09-18T09:31:41.270Z,24.50
2018-09-18T09:34:09.833Z,24.50
2018-09-18T09:36:38.474Z,24.60
2018-09-18T09:39:09.813Z,24.70
2018-09-18T09:41:39.010Z,24.70
2018-09-18T09:44:07.888Z,24.80
2018-09-18T09:46:36.392Z,24.80
2018-09-18T09:49:05.029Z,24.90
2018-09-18T09:51:33.642Z,24.90
2018-09-18T09:54:02.146Z,25.00
2018-09-18T09:56:30.684Z,25.00
2018-09-18T09:59:00.027Z,24.90
2018-09-18T10:01:34.040Z,25.00
2018-09-18T10:04:02.567Z,25.00
2018-09-18T10:06:31.075Z,25.10
2018-09-18T10:09:01.020Z,25.20
2018-09-18T10:11:29.658Z,25.20
2018-09-18T10:13:58.876Z,25.30
2018-09-18T10:16:27.674Z,25.30
2018-09-18T10:18:56.475Z,25.40
2018-09-18T10:21:24.975Z,25.40
2018-09-18T10:23:53.536Z,25.40
2018-09-18T10:26:24.109Z,25.40
2018-09-18T10:28:52.546Z,25.40
2018-09-18T10:31:21.083Z,25.40
2018-09-18T10:33:49.874Z,25.40
2018-09-18T10:36:18.448Z,25.40
2018-09-18T10:38:47.137Z,25.50
2018-09-18T10:41:16.411Z,25.50
2018-09-18T10:43:44.900Z,25.60
2018-09-18T10:46:13.423Z,25.60
2018-09-18T10:48:47.206Z,25.60
2018-09-18T10:51:15.740Z,25.70
2018-09-18T10:53:44.316Z,25.70
2018-09-18T10:56:12.885Z,25.70
2018-09-18T10:58:41.450Z,25.70
2018-09-18T11:01:10.225Z,25.70
2018-09-18T11:03:39.460Z,25.70
2018-09-18T11:06:08.294Z,25.70
2018-09-18T11:08:37.567Z,25.70
2018-09-18T11:11:07.004Z,25.60
2018-09-18T11:13:35.634Z,25.60
2018-09-18T11:16:04.120Z,25.60
2018-09-18T11:18:32.941Z,25.60
2018-09-18T11:21:01.451Z,25.60
2018-09-18T11:23:29.971Z,25.60
2018-09-18T11:25:58.548Z,25.60
2018-09-18T11:28:27.699Z,25.50
2018-09-18T11:30:56.218Z,25.50
2018-09-18T11:33:24.774Z,25.50
2018-09-18T11:35:53.243Z,25.40
2018-09-18T11:38:22.001Z,25.40
2018-09-18T11:40:50.534Z,25.40
2018-09-18T11:43:19.074Z,25.40
2018-09-18T11:45:47.885Z,25.40
2018-09-18T11:48:16.288Z,25.30
2018-09-18T11:50:44.836Z,25.30
2018-09-18T11:53:14.625Z,25.20
2018-09-18T11:55:45.512Z,25.20
2018-09-18T11:58:14.076Z,25.20
2018-09-18T12:00:42.662Z,25.10
2018-09-18T12:03:11.651Z,25.10
2018-09-18T12:05:40.107Z,25.10
2018-09-18T12:08:09.280Z,25.00
2018-09-18T12:10:38.228Z,24.90
2018-09-18T12:13:06.750Z,24.90
2018-09-18T12:15:35.314Z,24.80
2018-09-18T12:18:03.829Z,24.70
2018-09-18T12:20:32.429Z,24.70
2018-09-18T12:23:00.922Z,24.70
2018-09-18T12:25:29.451Z,24.70
2018-09-18T12:27:57.921Z,24.70
2018-09-18T12:30:26.478Z,24.70
2018-09-18T12:32:55.354Z,24.80
2018-09-18T12:35:24.003Z,24.80
2018-09-18T12:37:52.497Z,24.80
2018-09-18T12:40:21.038Z,24.80
2018-09-18T12:42:49.644Z,24.80
2018-09-18T12:45:18.834Z,24.80
2018-09-18T12:47:47.314Z,24.80
2018-09-18T12:50:16.083Z,24.80
2018-09-18T12:52:44.486Z,24.80
2018-09-18T12:55:13.013Z,24.90
2018-09-18T12:57:41.519Z,25.00
2018-09-18T13:00:10.209Z,24.90
2018-09-18T13:02:38.634Z,24.90
2018-09-18T13:05:08.058Z,24.90
2018-09-18T13:07:36.632Z,24.90
2018-09-18T13:10:05.214Z,24.90
2018-09-18T13:12:33.701Z,24.90
2018-09-18T13:15:02.866Z,25.00
2018-09-18T13:17:31.542Z,25.00
2018-09-18T13:20:00.716Z,24.90
2018-09-18T13:22:29.194Z,25.00
2018-09-18T13:24:57.720Z,25.00
2018-09-18T13:27:26.402Z,25.00
2018-09-18T13:29:54.917Z,25.00
2018-09-18T13:32:23.483Z,25.00
2018-09-18T13:34:53.828Z,25.00
2018-09-18T13:37:22.523Z,25.00
2018-09-18T13:39:51.214Z,25.00
2018-09-18T13:42:19.750Z,25.00
2018-09-18T13:44:48.519Z,25.00
2018-09-18T13:47:17.078Z,25.00
2018-09-18T13:49:45.616Z,25.10
2018-09-18T13:52:14.256Z,25.00
2018-09-18T13:54:42.856Z,25.10
2018-09-18T13:57:11.426Z,25.10
2018-09-18T13:59:40.264Z,25.10
2018-09-18T14:02:09.001Z,25.10
2018-09-18T14:04:37.482Z,25.10
2018-09-18T14:07:06.044Z,25.20
2018-09-18T14:09:34.644Z,25.20
2018-09-18T14:12:03.727Z,25.10
2018-09-18T14:14:32.290Z,25.10
2018-09-18T14:17:00.960Z,25.10
2018-09-18T14:19:29.467Z,25.20
2018-09-18T14:21:58.102Z,25.20
2018-09-18T14:24:26.845Z,25.20
2018-09-18T14:26:55.514Z,25.20
2018-09-18T14:29:24.063Z,25.30
2018-09-18T14:31:52.549Z,25.30
2018-09-18T14:34:21.288Z,25.20
2018-09-18T14:36:49.907Z,25.30
2018-09-18T14:39:18.611Z,25.20
2018-09-18T14:41:47.099Z,25.30
2018-09-18T14:44:15.652Z,25.20
2018-09-18T14:46:44.203Z,25.30
2018-09-18T14:49:12.750Z,25.30
2018-09-18T14:51:41.498Z,25.20
2018-09-18T14:54:10.390Z,25.20
2018-09-18T14:56:38.950Z,25.20
2018-09-18T14:59:07.478Z,25.20
2018-09-18T15:01:36.386Z,25.20
2018-09-18T15:04:05.652Z,25.20
2018-09-18T15:06:34.424Z,25.10
2018-09-18T15:09:03.232Z,25.20
2018-09-18T15:11:33.824Z,25.20
2018-09-18T15:14:02.396Z,25.20
2018-09-18T15:16:31.534Z,25.20
2018-09-18T15:19:00.114Z,25.10
2018-09-18T15:21:28.747Z,25.10
2018-09-18T15:23:57.312Z,25.10
2018-09-18T15:26:26.491Z,25.10
2018-09-18T15:28:55.062Z,25.10
2018-09-18T15:31:23.650Z,25.10
2018-09-18T15:33:52.210Z,25.10
2018-09-18T15:36:21.010Z,25.10
2018-09-18T15:38:49.846Z,25.10
2018-09-18T15:41:18.390Z,25.10
2018-09-18T15:43:46.975Z,25.10
2018-09-18T15:46:15.567Z,25.00
2018-09-18T15:48:44.380Z,25.10
2018-09-18T15:51:13.284Z,25.00
2018-09-18T15:53:41.791Z,25.00
2018-09-18T15:56:10.346Z,25.00
2018-09-18T15:58:39.369Z,25.00
2018-09-18T16:01:08.000Z,25.00
2018-09-18T16:03:36.931Z,25.00
2018-09-18T16:06:06.449Z,25.00
2018-09-18T16:08:35.375Z,24.90
2018-09-18T16:11:04.600Z,24.90
2018-09-18T16:13:33.147Z,24.90
2018-09-18T16:16:03.515Z,24.90
2018-09-18T16:18:32.015Z,24.90
2018-09-18T16:21:00.736Z,24.90
2018-09-18T16:23:29.252Z,24.80
2018-09-18T16:25:57.807Z,24.80
2018-09-18T16:28:26.917Z,24.80
2018-09-18T16:30:56.160Z,24.70
2018-09-18T16:33:24.587Z,24.70
2018-09-18T16:35:53.281Z,24.70
2018-09-18T16:38:21.812Z,24.70
2018-09-18T16:40:50.988Z,24.70
2018-09-18T16:43:20.167Z,24.70
2018-09-18T16:45:49.923Z,24.70
2018-09-18T16:48:20.878Z,24.60
2018-09-18T16:50:49.462Z,24.60
2018-09-18T16:53:18.688Z,24.50
2018-09-18T16:55:47.319Z,24.50
2018-09-18T16:58:16.052Z,24.50
2018-09-18T17:00:44.644Z,24.40
2018-09-18T17:03:13.255Z,24.30
2018-09-18T17:05:42.794Z,24.20
2018-09-18T17:08:12.022Z,24.10
2018-09-18T17:10:40.728Z,24.00
2018-09-18T17:13:09.368Z,23.90
2018-09-18T17:15:37.914Z,23.90
2018-09-18T17:18:07.062Z,23.80
2018-09-18T17:20:35.644Z,23.70
2018-09-18T17:23:04.346Z,23.60
2018-09-18T17:25:33.627Z,23.60
2018-09-18T17:28:02.355Z,23.50
2018-09-18T17:30:30.992Z,23.50
2018-09-18T17:33:00.131Z,23.40
2018-09-18T17:35:28.797Z,23.30
2018-09-18T17:37:58.785Z,23.30
2018-09-18T17:40:27.376Z,23.30
2018-09-18T17:42:56.059Z,23.20
2018-09-18T17:45:24.825Z,23.10
2018-09-18T17:47:53.669Z,23.10
2018-09-18T17:50:22.420Z,23.00
2018-09-18T17:52:51.510Z,22.90
2018-09-18T17:55:20.393Z,22.90
2018-09-18T17:57:49.040Z,22.80
2018-09-18T18:00:18.702Z,22.80
2018-09-18T18:02:47.223Z,22.70
2018-09-18T18:05:16.270Z,22.60
2018-09-18T18:07:45.063Z,22.60
2018-09-18T18:10:13.598Z,22.60
2018-09-18T18:12:42.815Z,22.50
2018-09-18T18:15:11.648Z,22.50
2018-09-18T18:17:40.437Z,22.40
2018-09-18T18:20:09.204Z,22.40
2018-09-18T18:22:37.881Z,22.40
2018-09-18T18:25:06.556Z,22.30
2018-09-18T18:27:35.258Z,22.30
2018-09-18T18:30:03.965Z,22.20
2018-09-18T18:32:32.663Z,22.20
2018-09-18T18:35:01.864Z,22.20
2018-09-18T18:37:30.668Z,22.10
2018-09-18T18:39:59.210Z,22.00
2018-09-18T18:42:27.750Z,22.00
2018-09-18T18:44:56.409Z,21.90
2018-09-18T18:47:25.124Z,21.90
2018-09-18T18:49:53.954Z,21.80
2018-09-18T18:52:23.149Z,21.80
2018-09-18T18:54:52.357Z,21.70
2018-09-18T18:57:21.066Z,21.70
2018-09-18T18:59:49.725Z,21.60
2018-09-18T19:02:18.332Z,21.60
2018-09-18T19:04:47.059Z,21.60
2018-09-18T19:07:15.722Z,21.60
2018-09-18T19:09:44.434Z,21.60
2018-09-18T19:12:13.457Z,21.60
2018-09-18T19:14:42.091Z,21.60
2018-09-18T19:17:10.697Z,21.60
2018-09-18T19:19:40.040Z,21.60
2018-09-18T19:22:08.687Z,21.60
2018-09-18T19:24:38.184Z,21.60
2018-09-18T19:27:06.836Z,21.60
2018-09-18T19:29:36.132Z,21.60
2018-09-18T19:32:04.670Z,21.60
2018-09-18T19:34:33.283Z,21.60
2018-09-18T19:37:02.059Z,21.60
2018-09-18T19:39:31.039Z,21.60
2018-09-18T19:42:00.598Z,21.60
2018-09-18T19:44:29.374Z,21.60
2018-09-18T19:46:58.290Z,21.60
2018-09-18T19:49:26.910Z,21.60
2018-09-18T19:51:55.640Z,21.60
2018-09-18T19:54:24.467Z,21.60
2018-09-18T19:56:54.772Z,21.60
2018-09-18T19:59:24.050Z,21.60
2018-09-18T20:01:52.606Z,21.60
2018-09-18T20:04:21.320Z,21.60
2018-09-18T20:06:50.049Z,21.50
2018-09-18T20:09:20.335Z,21.50
2018-09-18T20:11:49.535Z,21.50
2018-09-18T20:14:18.169Z,21.50
2018-09-18T20:16:46.863Z,21.50
2018-09-18T20:19:15.947Z,21.50
2018-09-18T20:21:44.599Z,21.40
2018-09-18T20:24:13.236Z,21.40
2018-09-18T20:26:42.329Z,21.40
2018-09-18T20:29:11.192Z,21.40
2018-09-18T20:31:40.750Z,21.40
2018-09-18T20:34:10.126Z,21.30
2018-09-18T20:36:39.484Z,21.30
2018-09-18T20:39:10.568Z,21.30
2018-09-18T20:41:41.095Z,21.30
2018-09-18T20:44:09.759Z,21.30
2018-09-18T20:46:38.446Z,21.20
2018-09-18T20:49:07.435Z,21.20
2018-09-18T20:51:36.100Z,21.20
2018-09-18T20:54:04.740Z,21.20
2018-09-18T20:56:33.930Z,21.10
2018-09-18T20:59:03.520Z,21.10
2018-09-18T21:01:32.558Z,21.20
2018-09-18T21:04:01.166Z,21.10
2018-09-18T21:06:30.265Z,21.10
2018-09-18T21:08:58.994Z,21.10
2018-09-18T21:11:28.340Z,21.10
2018-09-18T21:13:57.439Z,21.10
2018-09-18T21:16:26.326Z,21.10
2018-09-18T21:18:54.990Z,21.10
2018-09-18T21:21:23.558Z,21.00
2018-09-18T21:23:52.185Z,21.00
2018-09-18T21:26:20.807Z,21.00
2018-09-18T21:28:49.764Z,21.00
2018-09-18T21:31:18.415Z,20.90
2018-09-18T21:33:47.034Z,20.90
2018-09-18T21:36:15.905Z,20.90
2018-09-18T21:38:44.555Z,20.90
2018-09-18T21:41:13.020Z,20.90
2018-09-18T21:43:42.568Z,20.80
2018-09-18T21:46:11.120Z,20.80
2018-09-18T21:48:41.353Z,20.80
2018-09-18T21:51:10.392Z,20.70
2018-09-18T21:53:38.941Z,20.80
2018-09-18T21:56:07.588Z,20.70
2018-09-18T21:58:36.195Z,20.70
2018-09-18T22:01:06.471Z,20.70
2018-09-18T22:03:35.459Z,20.70
2018-09-18T22:06:04.206Z,20.60
2018-09-18T22:08:34.642Z,20.60
2018-09-18T22:11:03.241Z,20.60
2018-09-18T22:13:31.849Z,20.60
2018-09-18T22:16:00.487Z,20.60
2018-09-18T22:18:29.348Z,20.60
2018-09-18T22:20:57.928Z,20.60
2018-09-18T22:23:26.522Z,20.50
2018-09-18T22:25:55.310Z,20.50
2018-09-18T22:28:23.884Z,20.50
2018-09-18T22:30:52.459Z,20.50
2018-09-18T22:33:21.106Z,20.50
2018-09-18T22:35:49.751Z,20.50
2018-09-18T22:38:19.537Z,20.40
2018-09-18T22:40:48.170Z,20.40
2018-09-18T22:43:16.660Z,20.40
2018-09-18T22:45:45.289Z,20.40
2018-09-18T22:48:13.895Z,20.40
2018-09-18T22:50:43.049Z,20.40
2018-09-18T22:53:11.686Z,20.40
2018-09-18T22:55:40.249Z,20.40
2018-09-18T22:58:08.745Z,20.40
2018-09-18T23:00:37.304Z,20.30
2018-09-18T23:03:06.064Z,20.40
2018-09-18T23:05:34.810Z,20.30
2018-09-18T23:08:04.616Z,20.30
2018-09-18T23:10:33.144Z,20.30
2018-09-18T23:13:01.812Z,20.30
2018-09-18T23:15:30.349Z,20.30
2018-09-18T23:17:58.903Z,20.30
2018-09-18T23:20:27.993Z,20.30
2018-09-18T23:22:57.966Z,20.30
2018-09-18T23:25:26.471Z,20.30
2018-09-18T23:27:55.011Z,20.30
2018-09-18T23:30:23.884Z,20.20
2018-09-18T23:32:52.567Z,20.20
2018-09-18T23:35:21.054Z,20.20
2018-09-18T23:37:49.626Z,20.20
2018-09-18T23:40:18.208Z,20.20
2018-09-18T23:42:46.712Z,20.20
2018-09-18T23:45:15.546Z,20.20
2018-09-18T23:47:44.413Z,20.20
2018-09-18T23:50:13.156Z,20.20
2018-09-18T23:52:41.804Z,20.20
2018-09-18T23:55:10.379Z,20.20
2018-09-18T23:57:38.903Z,20.10
